Time;durP1;ratioP1;P1;durP2;ratioP2;P2;SDS_P1;SDS_P2;PMS_P1;PMS_P2;Temp;Humidity;BMP_temperature;BMP_pressure;BME280_temperature;BME280_humidity;BME280_pressure;Samples;Min_cycle;Max_cycle;Signal;HPM_P1;HPM_P2
2022/03/17 00:00:28;;;;;;;;;;;10.30;99.90;;;;;;5111851;28;20293;-79
2022/03/17 00:02:54;;;;;;;;;;;10.30;99.90;;;;;;5112581;28;19923;-79
2022/03/17 00:05:19;;;;;;;;;;;10.30;99.90;;;;;;5112320;28;20364;-79
2022/03/17 00:07:46;;;;;;;;;;;10.20;99.90;;;;;;5130007;28;20381;-80
2022/03/17 00:10:15;;;;;;;;;;;10.20;99.90;;;;;;5130591;28;19926;-79
2022/03/17 00:12:42;;;;;;;;;;;10.20;99.90;;;;;;5112162;28;19923;-79
2022/03/17 00:15:08;;;;;;;;;;;10.20;99.90;;;;;;5112035;28;19927;-80
2022/03/17 00:17:34;;;;;;;;;;;10.20;99.90;;;;;;5111549;28;19970;-80
2022/03/17 00:19:59;;;;;;;;;;;10.20;99.90;;;;;;5111843;28;20397;-80
2022/03/17 00:22:25;;;;;;;;;;;10.20;99.90;;;;;;5111846;28;19919;-80
2022/03/17 00:24:51;;;;;;;;;;;10.20;99.90;;;;;;5111538;28;19966;-79
2022/03/17 00:27:16;;;;;;;;;;;10.20;99.90;;;;;;5130277;28;19926;-80
2022/03/17 00:29:42;;;;;;;;;;;10.10;99.90;;;;;;5130404;28;19927;-80
2022/03/17 00:32:08;;;;;;;;;;;10.10;99.90;;;;;;5112005;28;20274;-80
2022/03/17 00:34:34;;;;;;;;;;;10.10;99.90;;;;;;5111584;28;20052;-80
2022/03/17 00:36:59;;;;;;;;;;;10.10;99.90;;;;;;5112004;28;19926;-80
2022/03/17 00:39:25;;;;;;;;;;;10.10;99.90;;;;;;5128512;27;19919;-80
2022/03/17 00:41:50;;;;;;;;;;;10.10;99.90;;;;;;5150767;27;19927;-80
2022/03/17 00:44:16;;;;;;;;;;;10.10;99.90;;;;;;5132386;27;20527;-80
2022/03/17 00:46:41;;;;;;;;;;;10.10;99.90;;;;;;5132011;27;20329;-80
2022/03/17 00:49:07;;;;;;;;;;;10.10;99.90;;;;;;5132458;27;20008;-80
2022/03/17 00:51:33;;;;;;;;;;;10.00;99.90;;;;;;5132354;27;19971;-80
2022/03/17 00:53:59;;;;;;;;;;;10.00;99.90;;;;;;5132638;27;20003;-80
2022/03/17 00:56:25;;;;;;;;;;;10.00;99.90;;;;;;5131657;27;19923;-80
2022/03/17 00:58:50;;;;;;;;;;;10.00;99.90;;;;;;5131925;27;19926;-80
2022/03/17 01:01:16;;;;;;;;;;;10.00;99.90;;;;;;5132826;27;19919;-79
2022/03/17 01:03:45;;;;;;;;;;;10.00;99.90;;;;;;5135747;27;19919;-80
2022/03/17 01:06:11;;;;;;;;;;;10.00;99.90;;;;;;5154031;27;19964;-80
2022/03/17 01:08:37;;;;;;;;;;;9.90;99.90;;;;;;5135565;27;19919;-80
2022/03/17 01:11:03;;;;;;;;;;;9.90;99.90;;;;;;5136008;27;19918;-80
2022/03/17 01:13:28;;;;;;;;;;;9.90;99.90;;;;;;5153933;27;19926;-80
2022/03/17 01:15:54;;;;;;;;;;;9.90;99.90;;;;;;5153941;27;19926;-80
2022/03/17 01:18:21;;;;;;;;;;;9.90;99.90;;;;;;5154422;27;19922;-79
2022/03/17 01:20:50;;;;;;;;;;;9.90;99.90;;;;;;5135351;27;20582;-80
2022/03/17 01:23:16;;;;;;;;;;;9.90;99.90;;;;;;5118031;27;19966;-80
2022/03/17 01:25:42;;;;;;;;;;;9.90;99.90;;;;;;5154303;27;19973;-80
2022/03/17 01:28:07;;;;;;;;;;;9.90;99.90;;;;;;5135578;27;20235;-80
2022/03/17 01:30:35;;;;;;;;;;;9.90;99.90;;;;;;5153650;27;19937;-80
2022/03/17 01:33:01;;;;;;;;;;;9.90;99.90;;;;;;5135133;27;19938;-80
2022/03/17 01:35:26;;;;;;;;;;;9.90;99.90;;;;;;5135438;27;19919;-80
2022/03/17 01:37:52;;;;;;;;;;;9.90;99.90;;;;;;5135029;27;19963;-80
2022/03/17 01:40:18;;;;;;;;;;;9.90;99.90;;;;;;5153787;27;19925;-80
2022/03/17 01:42:43;;;;;;;;;;;9.90;99.90;;;;;;5117623;27;20265;-80
2022/03/17 01:45:09;;;;;;;;;;;9.90;99.90;;;;;;5153470;27;19998;-80
2022/03/17 01:47:36;;;;;;;;;;;9.90;99.90;;;;;;5134183;27;19926;-81
2022/03/17 01:50:02;;;;;;;;;;;9.90;99.90;;;;;;5135114;27;19923;-80
2022/03/17 01:52:28;;;;;;;;;;;9.90;99.90;;;;;;5117422;27;20400;-80
2022/03/17 01:54:55;;;;;;;;;;;9.90;99.90;;;;;;5135246;27;20034;-81
2022/03/17 01:57:20;;;;;;;;;;;9.90;99.90;;;;;;5134634;27;19925;-80
2022/03/17 01:59:47;;;;;;;;;;;9.90;99.90;;;;;;5153285;27;19922;-80
2022/03/17 02:02:13;;;;;;;;;;;9.80;99.90;;;;;;5153756;27;19919;-80
2022/03/17 02:04:41;;;;;;;;;;;9.90;99.90;;;;;;5134833;27;19919;-80
2022/03/17 02:07:07;;;;;;;;;;;9.80;99.90;;;;;;5134348;27;19919;-80
2022/03/17 02:09:33;;;;;;;;;;;9.80;99.90;;;;;;5134548;27;19925;-80
2022/03/17 02:15:09;;;;;;;;;;;9.80;99.90;;;;;;5134027;27;20375;-80
2022/03/17 02:17:39;;;;;;;;;;;9.80;99.90;;;;;;5147509;27;19919;-80
2022/03/17 02:20:06;;;;;;;;;;;9.80;99.90;;;;;;5134292;27;20519;-80
2022/03/17 02:22:31;;;;;;;;;;;9.80;99.90;;;;;;5134713;27;19926;-79
2022/03/17 02:27:45;;;;;;;;;;;9.80;99.90;;;;;;5134730;27;19927;-80
2022/03/17 02:30:11;;;;;;;;;;;9.80;99.90;;;;;;5153024;27;19974;-80
2022/03/17 02:32:37;;;;;;;;;;;9.80;99.90;;;;;;5116304;27;19998;-80
2022/03/17 02:35:13;;;;;;;;;;;9.80;99.90;;;;;;5134627;27;20054;-80
2022/03/17 02:37:39;;;;;;;;;;;9.80;99.90;;;;;;5133750;27;19979;-80
2022/03/17 02:40:06;;;;;;;;;;;9.80;99.90;;;;;;5134270;27;19919;-80
2022/03/17 02:42:32;;;;;;;;;;;9.80;99.90;;;;;;5134446;27;19926;-80
2022/03/17 02:44:58;;;;;;;;;;;9.80;99.90;;;;;;5152049;27;20654;-80
2022/03/17 02:47:25;;;;;;;;;;;9.80;99.90;;;;;;5117246;27;20356;-80
2022/03/17 02:49:52;;;;;;;;;;;9.70;99.90;;;;;;5133980;27;20003;-80
2022/03/17 02:52:18;;;;;;;;;;;9.80;99.90;;;;;;5133833;27;19925;-80
2022/03/17 02:54:44;;;;;;;;;;;9.80;99.90;;;;;;5116411;27;19919;-80
2022/03/17 02:57:09;;;;;;;;;;;9.80;99.90;;;;;;5116919;27;19922;-80
2022/03/17 02:59:35;;;;;;;;;;;9.70;99.90;;;;;;5133147;27;19969;-80
2022/03/17 03:02:04;;;;;;;;;;;9.70;99.90;;;;;;5133723;27;20349;-79
2022/03/17 03:04:33;;;;;;;;;;;9.80;99.90;;;;;;5133525;27;19919;-80
2022/03/17 03:06:59;;;;;;;;;;;9.70;99.90;;;;;;5133669;27;19919;-79
2022/03/17 03:09:24;;;;;;;;;;;9.70;99.90;;;;;;5116545;27;19919;-80
2022/03/17 03:11:50;;;;;;;;;;;9.70;99.90;;;;;;5151732;27;19926;-80
2022/03/17 03:14:15;;;;;;;;;;;9.70;99.90;;;;;;5132895;27;19995;-79
2022/03/17 03:16:41;;;;;;;;;;;9.60;99.90;;;;;;5133189;27;19982;-80
2022/03/17 03:19:06;;;;;;;;;;;9.60;99.90;;;;;;5133263;27;19926;-80
2022/03/17 03:21:32;;;;;;;;;;;9.60;99.90;;;;;;5132614;27;19923;-80
2022/03/17 03:23:57;;;;;;;;;;;9.60;99.90;;;;;;5133115;27;19919;-80
2022/03/17 03:26:23;;;;;;;;;;;9.60;99.90;;;;;;5133096;27;19919;-79
2022/03/17 03:28:48;;;;;;;;;;;9.60;99.90;;;;;;5133425;27;20026;-80
2022/03/17 03:31:14;;;;;;;;;;;9.70;99.90;;;;;;5132899;27;19969;-79
2022/03/17 03:33:39;;;;;;;;;;;9.70;99.90;;;;;;5133102;27;19922;-79
2022/03/17 03:38:50;;;;;;;;;;;9.70;99.90;;;;;;5112987;27;19948;-79
2022/03/17 03:41:16;;;;;;;;;;;9.80;99.90;;;;;;5131728;27;19923;-80
2022/03/17 03:43:41;;;;;;;;;;;9.80;99.90;;;;;;5132105;27;19933;-80
2022/03/17 03:46:07;;;;;;;;;;;9.80;99.90;;;;;;5106091;27;19926;-80
2022/03/17 03:48:33;;;;;;;;;;;9.90;99.90;;;;;;5124507;27;19919;-81
2022/03/17 03:50:59;;;;;;;;;;;9.80;99.90;;;;;;5112063;28;19920;-80
2022/03/17 03:54:12;;;;;;;;;;;9.90;99.90;;;;;;5130458;27;19927;-81
2022/03/17 03:56:10;;;;;;;;;;;9.90;99.90;;;;;;5112453;27;19926;-81
2022/03/17 03:58:35;;;;;;;;;;;9.90;99.90;;;;;;5112054;28;19919;-80
2022/03/17 04:01:01;;;;;;;;;;;9.90;99.90;;;;;;5111995;27;19924;-81
2022/03/17 04:03:28;;;;;;;;;;;9.90;99.90;;;;;;5111707;27;20458;-81
2022/03/17 04:05:53;;;;;;;;;;;9.90;99.90;;;;;;5112002;27;20019;-81
2022/03/17 04:08:19;;;;;;;;;;;9.90;99.90;;;;;;5095066;27;19976;-80
2022/03/17 04:10:44;;;;;;;;;;;9.90;99.90;;;;;;5112083;27;20023;-81
2022/03/17 04:13:10;;;;;;;;;;;9.90;99.90;;;;;;5112461;28;20757;-81
2022/03/17 04:15:35;;;;;;;;;;;9.90;99.90;;;;;;5094535;27;20037;-80
2022/03/17 04:18:01;;;;;;;;;;;9.90;99.90;;;;;;5111564;27;19946;-80
2022/03/17 04:20:27;;;;;;;;;;;10.00;99.90;;;;;;5111800;28;20289;-81
2022/03/17 04:22:53;;;;;;;;;;;10.00;99.90;;;;;;5110598;27;19930;-80
2022/03/17 04:25:18;;;;;;;;;;;10.00;99.90;;;;;;5110940;27;19919;-80
2022/03/17 04:27:44;;;;;;;;;;;10.00;99.90;;;;;;5110527;27;19920;-80
2022/03/17 04:30:10;;;;;;;;;;;10.00;99.90;;;;;;5111146;28;19924;-80
2022/03/17 04:32:35;;;;;;;;;;;10.00;99.90;;;;;;5110798;27;20301;-80
2022/03/17 04:35:01;;;;;;;;;;;10.00;99.90;;;;;;5110970;27;19923;-80
2022/03/17 04:37:27;;;;;;;;;;;10.00;99.90;;;;;;5113503;27;19919;-80
2022/03/17 04:39:53;;;;;;;;;;;10.00;99.90;;;;;;5097734;27;19992;-81
2022/03/17 04:42:18;;;;;;;;;;;10.00;99.90;;;;;;5114949;27;19923;-80
2022/03/17 04:44:44;;;;;;;;;;;10.00;99.90;;;;;;5114803;27;19968;-80
2022/03/17 04:47:09;;;;;;;;;;;10.00;99.90;;;;;;5115048;27;19919;-80
2022/03/17 04:49:35;;;;;;;;;;;10.00;99.90;;;;;;5114627;27;20378;-80
2022/03/17 04:52:00;;;;;;;;;;;9.90;99.90;;;;;;5132761;27;19926;-80
2022/03/17 04:54:26;;;;;;;;;;;9.90;99.90;;;;;;5114841;27;19923;-80
2022/03/17 04:56:51;;;;;;;;;;;9.90;99.90;;;;;;5114609;27;19965;-80
2022/03/17 04:59:20;;;;;;;;;;;9.90;99.90;;;;;;5115260;27;19926;-80
2022/03/17 05:01:46;;;;;;;;;;;9.80;99.90;;;;;;5115039;27;20293;-80
2022/03/17 05:04:11;;;;;;;;;;;9.70;99.90;;;;;;5115835;27;19920;-80
2022/03/17 05:06:37;;;;;;;;;;;9.80;99.90;;;;;;5115425;27;19919;-80
2022/03/17 05:09:04;;;;;;;;;;;9.70;99.90;;;;;;5115648;27;19923;-80
2022/03/17 05:11:31;;;;;;;;;;;9.70;99.90;;;;;;5114995;27;19931;-80
2022/03/17 05:13:57;;;;;;;;;;;9.70;99.90;;;;;;5115355;27;19947;-80
2022/03/17 05:16:22;;;;;;;;;;;9.60;99.90;;;;;;5114158;27;19923;-80
2022/03/17 05:18:48;;;;;;;;;;;9.50;99.90;;;;;;5113901;27;19926;-80
2022/03/17 05:21:13;;;;;;;;;;;9.40;99.90;;;;;;5114484;27;19926;-81
2022/03/17 05:23:39;;;;;;;;;;;9.40;99.90;;;;;;5096165;27;19919;-80
2022/03/17 05:26:04;;;;;;;;;;;9.30;99.90;;;;;;5096847;27;19923;-80
2022/03/17 05:28:30;;;;;;;;;;;9.20;99.90;;;;;;5114337;27;19927;-80
2022/03/17 05:30:56;;;;;;;;;;;9.20;99.90;;;;;;5113984;27;19965;-80
2022/03/17 05:33:21;;;;;;;;;;;9.20;99.90;;;;;;5113256;27;20013;-80
2022/03/17 05:35:47;;;;;;;;;;;9.20;99.90;;;;;;5113782;27;20056;-80
2022/03/17 05:38:13;;;;;;;;;;;9.10;99.90;;;;;;5114108;27;19920;-80
2022/03/17 05:40:38;;;;;;;;;;;9.10;99.90;;;;;;5113269;27;20297;-80
2022/03/17 05:43:06;;;;;;;;;;;9.10;99.90;;;;;;5113597;27;19930;-80
2022/03/17 05:45:31;;;;;;;;;;;9.10;99.90;;;;;;5113993;27;19961;-80
2022/03/17 05:47:59;;;;;;;;;;;9.10;99.90;;;;;;5113218;27;20023;-80
2022/03/17 05:50:26;;;;;;;;;;;9.10;99.90;;;;;;5113732;27;19946;-80
2022/03/17 05:52:52;;;;;;;;;;;9.10;99.90;;;;;;5113497;27;20010;-80
2022/03/17 05:55:19;;;;;;;;;;;9.10;99.90;;;;;;5113746;27;20870;-80
2022/03/17 05:57:45;;;;;;;;;;;9.20;99.90;;;;;;5113635;27;19919;-80
2022/03/17 06:00:12;;;;;;;;;;;9.10;99.90;;;;;;5113761;27;20030;-80
2022/03/17 06:02:38;;;;;;;;;;;9.00;99.90;;;;;;5097025;27;19919;-80
2022/03/17 06:05:04;;;;;;;;;;;8.90;99.90;;;;;;5114554;27;19924;-80
2022/03/17 06:07:37;;;;;;;;;;;8.80;99.90;;;;;;5113941;27;20208;-80
2022/03/17 06:10:03;;;;;;;;;;;8.70;99.90;;;;;;5113948;27;19923;-79
2022/03/17 06:12:30;;;;;;;;;;;8.60;99.90;;;;;;5096414;27;20385;-80
2022/03/17 06:14:57;;;;;;;;;;;8.50;99.90;;;;;;5114107;27;20017;-80
2022/03/17 06:17:23;;;;;;;;;;;8.50;99.90;;;;;;5113888;27;19923;-80
2022/03/17 06:19:49;;;;;;;;;;;8.40;99.90;;;;;;5113583;27;19923;-80
2022/03/17 06:22:14;;;;;;;;;;;8.30;99.90;;;;;;5114195;27;20011;-80
2022/03/17 06:24:39;;;;;;;;;;;8.30;99.90;;;;;;5113395;27;20282;-81
2022/03/17 06:27:05;;;;;;;;;;;8.30;99.90;;;;;;5124686;27;19927;-81
2022/03/17 06:29:30;;;;;;;;;;;8.30;99.90;;;;;;5117007;27;19931;-80
2022/03/17 06:31:56;;;;;;;;;;;8.20;99.90;;;;;;5125430;27;20010;-81
2022/03/17 06:34:22;;;;;;;;;;;8.20;99.90;;;;;;5119296;27;19919;-81
2022/03/17 06:36:48;;;;;;;;;;;8.20;99.90;;;;;;5113412;27;19924;-80
2022/03/17 06:39:13;;;;;;;;;;;8.20;99.90;;;;;;5113353;27;19920;-81
2022/03/17 06:41:39;;;;;;;;;;;8.20;99.90;;;;;;5113613;27;19923;-81
2022/03/17 06:44:04;;;;;;;;;;;8.20;99.90;;;;;;5095785;27;19923;-80
2022/03/17 06:46:30;;;;;;;;;;;8.20;99.90;;;;;;5129629;27;19971;-79
2022/03/17 06:48:56;;;;;;;;;;;8.10;99.90;;;;;;5133614;27;19919;-80
2022/03/17 06:51:21;;;;;;;;;;;8.20;99.90;;;;;;5130729;27;19945;-81
2022/03/17 06:53:47;;;;;;;;;;;8.10;99.90;;;;;;5104536;27;20306;-82
2022/03/17 06:56:13;;;;;;;;;;;8.20;99.90;;;;;;5113380;27;19925;-81
2022/03/17 06:58:39;;;;;;;;;;;8.10;99.90;;;;;;5095284;27;19929;-81
2022/03/17 07:01:04;;;;;;;;;;;8.10;99.90;;;;;;5096126;27;20014;-81
2022/03/17 07:03:30;;;;;;;;;;;8.10;99.90;;;;;;5131346;27;20400;-81
2022/03/17 07:05:55;;;;;;;;;;;8.10;99.90;;;;;;5113357;27;20544;-82
2022/03/17 07:08:21;;;;;;;;;;;8.10;99.90;;;;;;5113206;27;19929;-82
2022/03/17 07:10:46;;;;;;;;;;;8.10;99.90;;;;;;5112451;27;19944;-81
2022/03/17 07:13:13;;;;;;;;;;;8.10;99.90;;;;;;5112979;27;19920;-82
2022/03/17 07:15:39;;;;;;;;;;;8.10;99.90;;;;;;5112570;27;19920;-82
2022/03/17 07:18:04;;;;;;;;;;;8.00;99.90;;;;;;5112260;27;19945;-80
2022/03/17 07:20:30;;;;;;;;;;;8.00;99.90;;;;;;5095881;27;20293;-81
2022/03/17 07:22:55;;;;;;;;;;;8.00;99.90;;;;;;5095086;27;19926;-81
2022/03/17 07:25:23;;;;;;;;;;;8.00;99.90;;;;;;5112638;27;20011;-82
2022/03/17 07:27:49;;;;;;;;;;;7.90;99.90;;;;;;5112875;27;19929;-82
2022/03/17 07:30:19;;;;;;;;;;;8.00;99.90;;;;;;5112910;28;19922;-82
2022/03/17 07:32:48;;;;;;;;;;;8.00;99.90;;;;;;5095056;27;19926;-81
2022/03/17 07:35:14;;;;;;;;;;;8.00;99.90;;;;;;5112566;27;20122;-81
2022/03/17 07:37:41;;;;;;;;;;;8.00;99.90;;;;;;5116449;27;19927;-82
2022/03/17 07:40:06;;;;;;;;;;;7.90;99.90;;;;;;5116783;27;19919;-81
2022/03/17 07:42:32;;;;;;;;;;;7.90;99.90;;;;;;5118399;27;20349;-82
2022/03/17 07:44:57;;;;;;;;;;;8.00;99.90;;;;;;5112373;27;20305;-82
2022/03/17 07:47:23;;;;;;;;;;;8.00;99.90;;;;;;5126815;27;20724;-82
2022/03/17 07:49:50;;;;;;;;;;;8.00;99.90;;;;;;5130961;27;19929;-82
2022/03/17 07:52:15;;;;;;;;;;;8.10;99.90;;;;;;5111334;28;20039;-82
2022/03/17 07:54:41;;;;;;;;;;;8.00;99.90;;;;;;5111860;27;20009;-82
2022/03/17 07:57:06;;;;;;;;;;;8.10;99.90;;;;;;5112202;27;19919;-82
2022/03/17 07:59:32;;;;;;;;;;;8.00;99.90;;;;;;5116206;27;19919;-82
2022/03/17 08:01:58;;;;;;;;;;;8.00;99.90;;;;;;5119055;27;19919;-82
2022/03/17 08:04:23;;;;;;;;;;;8.00;99.90;;;;;;5114738;28;19919;-82
2022/03/17 08:06:53;;;;;;;;;;;8.00;99.90;;;;;;5111707;27;19981;-82
2022/03/17 08:09:22;;;;;;;;;;;8.00;99.90;;;;;;5132674;27;19966;-82
2022/03/17 08:11:48;;;;;;;;;;;7.90;99.90;;;;;;5116942;27;19919;-82
2022/03/17 08:14:14;;;;;;;;;;;7.90;99.90;;;;;;5119457;27;19919;-82
2022/03/17 08:16:40;;;;;;;;;;;7.90;99.90;;;;;;5127932;27;19922;-82
2022/03/17 08:19:08;;;;;;;;;;;7.90;99.90;;;;;;5121850;27;19930;-82
2022/03/17 08:21:33;;;;;;;;;;;8.00;99.90;;;;;;5116124;27;19919;-82
2022/03/17 08:23:59;;;;;;;;;;;8.00;99.90;;;;;;5116095;27;19919;-82
2022/03/17 08:26:24;;;;;;;;;;;7.90;99.90;;;;;;5119975;27;19919;-82
2022/03/17 08:28:50;;;;;;;;;;;8.00;99.90;;;;;;5114813;27;19976;-81
2022/03/17 08:31:15;;;;;;;;;;;8.00;99.90;;;;;;5134211;27;19927;-81
2022/03/17 08:33:41;;;;;;;;;;;8.00;99.90;;;;;;5115038;27;20451;-81
2022/03/17 08:36:06;;;;;;;;;;;8.10;99.90;;;;;;5115726;27;19923;-82
2022/03/17 08:38:32;;;;;;;;;;;8.10;99.90;;;;;;5115096;27;20011;-81
2022/03/17 08:40:58;;;;;;;;;;;8.10;99.90;;;;;;5115464;27;20005;-81
2022/03/17 08:43:23;;;;;;;;;;;8.10;99.90;;;;;;5115738;27;19985;-82
2022/03/17 08:51:22;;;;;;;;;;;8.10;99.90;;;;;;5115820;27;19926;-81
2022/03/17 08:53:48;;;;;;;;;;;8.10;99.90;;;;;;5097941;27;20371;-81
2022/03/17 08:56:13;;;;;;;;;;;8.10;99.90;;;;;;5115141;27;19926;-81
2022/03/17 08:58:39;;;;;;;;;;;8.10;99.90;;;;;;5115339;27;19919;-81
2022/03/17 09:01:04;;;;;;;;;;;8.10;99.90;;;;;;5115343;27;19931;-81
2022/03/17 09:03:32;;;;;;;;;;;8.10;99.90;;;;;;5114927;27;19919;-81
2022/03/17 09:05:59;;;;;;;;;;;8.10;99.90;;;;;;5114570;27;19972;-81
2022/03/17 09:08:25;;;;;;;;;;;8.10;99.90;;;;;;5133476;27;19919;-81
2022/03/17 09:10:51;;;;;;;;;;;8.10;99.90;;;;;;5133639;27;19962;-79
2022/03/17 09:13:16;;;;;;;;;;;8.10;99.90;;;;;;5114864;27;19968;-79
2022/03/17 09:15:42;;;;;;;;;;;8.10;99.90;;;;;;5114504;27;20006;-79
2022/03/17 09:18:08;;;;;;;;;;;8.10;99.90;;;;;;5114622;27;19923;-78
2022/03/17 09:20:34;;;;;;;;;;;8.10;99.90;;;;;;5114537;27;19919;-79
2022/03/17 09:23:01;;;;;;;;;;;8.10;99.90;;;;;;5114146;27;19926;-80
2022/03/17 09:25:28;;;;;;;;;;;8.10;99.90;;;;;;5098032;27;20294;-79
2022/03/17 09:27:54;;;;;;;;;;;8.10;99.90;;;;;;5096833;27;19949;-81
2022/03/17 09:30:19;;;;;;;;;;;8.10;99.90;;;;;;5114460;27;19927;-82
2022/03/17 09:32:45;;;;;;;;;;;8.10;99.90;;;;;;5113472;27;19977;-81
2022/03/17 09:35:11;;;;;;;;;;;8.10;99.90;;;;;;5114288;27;19919;-79
2022/03/17 09:37:37;;;;;;;;;;;8.20;99.90;;;;;;5113615;27;19919;-79
2022/03/17 09:40:03;;;;;;;;;;;8.30;99.90;;;;;;5114260;27;19930;-79
2022/03/17 09:42:29;;;;;;;;;;;8.30;99.90;;;;;;5114049;27;19919;-79
2022/03/17 09:44:55;;;;;;;;;;;8.30;99.90;;;;;;5114108;27;19926;-79
2022/03/17 09:47:21;;;;;;;;;;;8.30;99.90;;;;;;5114230;27;20404;-79
2022/03/17 09:49:51;;;;;;;;;;;8.20;99.90;;;;;;5113883;27;19926;-79
2022/03/17 09:52:17;;;;;;;;;;;8.20;99.90;;;;;;5114161;27;19925;-79
2022/03/17 09:54:44;;;;;;;;;;;8.20;99.90;;;;;;5113675;27;19919;-79
2022/03/17 09:57:10;;;;;;;;;;;8.20;99.90;;;;;;5113906;27;19931;-79
2022/03/17 09:59:35;;;;;;;;;;;8.20;99.90;;;;;;5096688;27;19919;-79
2022/03/17 10:02:01;;;;;;;;;;;8.30;99.90;;;;;;5113919;27;20027;-79
2022/03/17 10:04:30;;;;;;;;;;;8.40;99.90;;;;;;5113995;27;19924;-79
2022/03/17 10:06:58;;;;;;;;;;;8.50;99.90;;;;;;5132056;27;19979;-79
2022/03/17 10:09:24;;;;;;;;;;;8.50;99.90;;;;;;5096755;27;19930;-79
2022/03/17 10:11:59;;;;;;;;;;;8.60;99.90;;;;;;5114065;27;19923;-79
2022/03/17 10:14:34;;;;;;;;;;;8.60;99.90;;;;;;5132414;27;19923;-79
2022/03/17 10:17:03;;;;;;;;;;;8.70;99.90;;;;;;5114142;27;19945;-79
2022/03/17 10:19:34;;;;;;;;;;;8.90;99.90;;;;;;5113680;27;19919;-79
2022/03/17 10:22:07;;;;;;;;;;;9.00;99.90;;;;;;5113636;27;19979;-79
2022/03/17 10:24:36;;;;;;;;;;;9.40;99.90;;;;;;5113680;27;20292;-78
2022/03/17 10:27:03;;;;;;;;;;;9.60;99.90;;;;;;5113359;27;19923;-79
2022/03/17 10:29:29;;;;;;;;;;;9.50;99.90;;;;;;5113556;27;19925;-79
2022/03/17 10:32:07;;;;;;;;;;;9.50;99.90;;;;;;5113589;27;20300;-79
2022/03/17 10:34:35;;;;;;;;;;;9.40;99.90;;;;;;5130820;27;20006;-78
2022/03/17 10:37:06;;;;;;;;;;;9.30;99.90;;;;;;5113448;27;19930;-79
2022/03/17 10:39:35;;;;;;;;;;;9.20;99.90;;;;;;5131393;27;19922;-79
2022/03/17 10:42:08;;;;;;;;;;;9.60;99.90;;;;;;5096282;27;19926;-81
2022/03/17 10:44:34;;;;;;;15.10;2.17;;;10.50;99.90;;;;;;5112955;27;19972;-81
2022/03/17 10:47:01;;;;;;;13.20;1.80;;;10.70;99.90;;;;;;5112710;27;20051;-81
2022/03/17 10:49:28;;;;;;;11.95;1.80;;;10.60;99.90;;;;;;5130659;27;20045;-81
2022/03/17 10:51:55;;;;;;;13.32;2.42;;;10.40;99.90;;;;;;5112668;27;20082;-80
2022/03/17 10:54:21;;;;;;;15.15;2.30;;;10.20;99.90;;;;;;5095678;27;20043;-81
2022/03/17 10:57:03;;;;;;;13.45;2.60;;;10.50;99.90;;;;;;5112948;27;20046;-81
2022/03/17 10:59:42;;;;;;;13.50;2.45;;;11.40;99.90;;;;;;5131099;27;20122;-81
2022/03/17 11:02:11;;;;;;;15.25;2.42;;;11.70;99.90;;;;;;5112207;27;20047;-81
2022/03/17 11:04:38;;;;;;;14.43;2.42;;;11.60;99.90;;;;;;5130919;27;20046;-81
2022/03/17 11:07:07;;;;;;;10.45;1.85;;;11.70;99.90;;;;;;5113825;27;20356;-82
2022/03/17 11:09:36;;;;;;;15.48;2.30;;;11.40;99.90;;;;;;5130918;27;20126;-80
2022/03/17 11:12:02;;;;;;;;;;;11.20;99.90;;;;;;5112758;27;20039;-80
2022/03/17 11:14:29;;;;;;;;;;;11.90;99.90;;;;;;5112881;27;19920;-81
2022/03/17 11:16:56;;;;;;;;;;;12.90;99.90;;;;;;5131225;27;19926;-81
2022/03/17 11:19:22;;;;;;;;;;;13.60;99.10;;;;;;5116303;27;19919;-81
2022/03/17 11:21:49;;;;;;;;;;;13.80;98.50;;;;;;5132261;27;19919;-84
2022/03/17 11:24:19;;;;;;;;;;;14.30;98.10;;;;;;5115790;27;19945;-81
2022/03/17 11:26:46;;;;;;;;;;;14.30;95.20;;;;;;5133220;27;20018;-81
2022/03/17 11:29:18;;;;;;;;;;;14.50;95.50;;;;;;5128956;27;20001;-81
2022/03/17 11:32:00;;;;;;;;;;;14.60;93.10;;;;;;5117770;27;19927;-81
2022/03/17 11:34:39;;;;;;;;;;;14.30;94.10;;;;;;5114944;27;19926;-81
2022/03/17 11:37:31;;;;;;;;;;;14.30;92.90;;;;;;5111684;27;19933;-81
2022/03/17 11:39:56;;;;;;;;;;;13.70;93.10;;;;;;5097680;27;20035;-80
2022/03/17 11:42:29;;;;;;;;;;;13.10;93.70;;;;;;5121729;27;20013;-81
2022/03/17 11:45:11;;;;;;;;;;;13.20;94.80;;;;;;5133206;27;19969;-81
2022/03/17 11:47:37;;;;;;;;;;;13.70;93.30;;;;;;5116547;27;20388;-81
2022/03/17 11:50:22;;;;;;;;;;;14.30;93.80;;;;;;5094336;27;20006;-81
2022/03/17 11:53:01;;;;;;;;;;;14.50;92.00;;;;;;5109603;27;19920;-81
2022/03/17 11:55:42;;;;;;;;;;;14.20;91.90;;;;;;5110954;27;20015;-81
2022/03/17 11:58:19;;;;;;;;;;;14.70;90.10;;;;;;5107058;27;19927;-81
2022/03/17 12:00:46;;;;;;;;;;;15.40;91.40;;;;;;5110122;27;19983;-80
2022/03/17 12:03:12;;;;;;;;;;;16.00;87.90;;;;;;5110333;27;20001;-83
2022/03/17 12:05:38;;;;;;;;;;;15.90;83.80;;;;;;5096327;28;19931;-80
2022/03/17 12:08:03;;;;;;;;;;;15.80;85.90;;;;;;5125989;27;19930;-82
2022/03/17 12:10:49;;;;;;;;;;;15.70;82.20;;;;;;5110774;28;20301;-82
2022/03/17 12:13:21;;;;;;;;;;;16.10;82.40;;;;;;5111141;28;19930;-82
2022/03/17 12:15:54;;;;;;;;;;;16.40;80.80;;;;;;5145636;27;19919;-82
2022/03/17 12:18:20;;;;;;;;;;;16.50;78.60;;;;;;5148498;27;19919;-82
2022/03/17 12:20:47;;;;;;;;;;;16.40;72.10;;;;;;5136534;27;19926;-81
2022/03/17 12:23:31;;;;;;;;;;;15.80;74.80;;;;;;5133478;27;19927;-82
2022/03/17 12:26:03;;;;;;;;;;;15.70;76.20;;;;;;5111498;27;20285;-81
2022/03/17 12:28:32;;;;;;;;;;;15.50;75.10;;;;;;5131040;27;19919;-81
2022/03/17 12:30:57;;;;;;;;;;;15.40;77.30;;;;;;5131851;27;19923;-81
2022/03/17 12:33:24;;;;;;;;;;;15.90;77.80;;;;;;5150412;27;19930;-81
2022/03/17 12:36:03;;;;;;;;;;;16.30;75.40;;;;;;5114885;28;19927;-81
2022/03/17 12:38:29;;;;;;;;;;;16.40;73.60;;;;;;5110241;28;19965;-81
2022/03/17 12:40:57;;;;;;;;;;;16.50;71.30;;;;;;5110884;28;19924;-80
2022/03/17 12:43:23;;;;;;;;;;;16.60;68.60;;;;;;5129427;28;19926;-81
2022/03/17 12:45:51;;;;;;;;;;;16.60;70.20;;;;;;5124466;27;19923;-80
2022/03/17 12:48:17;;;;;;;;;;;16.40;68.70;;;;;;5112027;28;19941;-80
2022/03/17 12:50:44;;;;;;;;;;;16.50;67.40;;;;;;5111142;28;19919;-81
2022/03/17 12:53:09;;;;;;;;;;;16.60;68.00;;;;;;5114620;28;19919;-81
2022/03/17 12:55:35;;;;;;;;;;;16.70;67.20;;;;;;5125714;27;19983;-80
2022/03/17 12:58:02;;;;;;;;;;;16.70;66.10;;;;;;5133448;27;20093;-80
2022/03/17 13:00:28;;;;;;;;;;;16.90;66.40;;;;;;5132071;27;19919;-80
2022/03/17 13:02:54;;;;;;;;;;;17.20;66.70;;;;;;5154666;27;19919;-80
2022/03/17 13:08:05;;;;;;;;;;;17.40;63.00;;;;;;5134565;27;19963;-81
2022/03/17 13:16:00;;;;;;;;;;;17.00;60.10;;;;;;5115331;27;19920;-81
2022/03/17 13:18:38;;;;;;;;;;;16.90;61.30;;;;;;5098894;27;19930;-81
2022/03/17 13:21:04;;;;;;;;;;;17.10;63.00;;;;;;5131985;27;19924;-81
2022/03/17 13:23:36;;;;;;;;;;;17.60;63.60;;;;;;5153111;27;19967;-82
2022/03/17 13:26:02;;;;;;;8.98;1.77;;;17.80;60.90;;;;;;5152307;27;20879;-79
2022/03/17 13:28:27;;;;;;;9.73;1.95;;;17.80;60.30;;;;;;5109740;27;20409;-79
2022/03/17 13:30:53;;;;;;;7.13;1.57;;;17.80;58.20;;;;;;5146508;27;20467;-79
2022/03/17 13:33:27;;;;;;;10.52;2.20;;;17.70;58.30;;;;;;5112918;27;20498;-80
2022/03/17 13:35:53;;;;;;;11.68;2.50;;;17.90;57.90;;;;;;5096146;27;20835;-80
2022/03/17 13:38:20;;;;;;;9.32;1.80;;;18.00;58.50;;;;;;5146867;27;20416;-80
2022/03/17 13:40:55;;;;;;;8.48;1.63;;;18.10;56.70;;;;;;5133404;27;20428;-80
2022/03/17 13:43:31;;;;;;;9.02;1.80;;;18.30;55.80;;;;;;5132354;27;20523;-80
2022/03/17 13:45:57;;;;;;;8.48;2.00;;;18.30;55.10;;;;;;5129163;27;20417;-81
2022/03/17 13:48:25;;;;;;;8.75;1.90;;;18.10;54.80;;;;;;5112635;27;20499;-81
2022/03/17 13:50:52;;;;;;;9.37;1.93;;;18.20;55.90;;;;;;5113183;27;21024;-80
2022/03/17 13:53:28;;;;;;;10.02;1.88;;;18.20;56.10;;;;;;5121618;27;20432;-80
2022/03/17 13:55:58;;;;;;;10.90;1.70;;;18.10;55.50;;;;;;5120448;27;21727;-80
2022/03/17 13:58:30;;;;;;;9.07;1.80;;;17.40;54.70;;;;;;5118893;27;20518;-80
2022/03/17 14:01:07;;;;;;;9.70;2.05;;;17.10;55.30;;;;;;5131664;27;20508;-80
2022/03/17 14:03:33;;;;;;;10.52;1.92;;;17.00;57.70;;;;;;5112557;27;20444;-80
2022/03/17 14:06:11;;;;;;;8.93;1.80;;;16.70;57.80;;;;;;5112347;27;20399;-80
2022/03/17 14:08:41;;;;;;;8.55;1.77;;;16.40;58.90;;;;;;5128863;27;20985;-79
2022/03/17 14:11:09;;;;;;;7.18;1.33;;;16.30;55.80;;;;;;5123117;27;20394;-80
2022/03/17 14:13:41;;;;;;;11.77;2.35;;;16.20;55.30;;;;;;5111424;27;20463;-80
2022/03/17 14:16:10;;;;;;;12.65;2.35;;;15.90;57.70;;;;;;5094453;27;20403;-80
2022/03/17 14:18:38;;;;;;;7.80;1.73;;;15.60;58.80;;;;;;5111339;27;20409;-81
2022/03/17 14:21:04;;;;;;;9.07;2.05;;;15.50;58.00;;;;;;5132119;27;20422;-80
2022/03/17 14:26:16;;;;;;;8.87;1.37;;;15.50;58.20;;;;;;5125214;27;21163;-80
2022/03/17 14:28:41;;;;;;;16.85;2.55;;;15.30;56.00;;;;;;5118350;27;20410;-80
2022/03/17 14:31:08;;;;;;;10.82;1.50;;;15.20;58.20;;;;;;5115936;27;20951;-80
2022/03/17 14:33:37;;;;;;;8.00;1.38;;;15.00;59.10;;;;;;5113891;27;21044;-79
2022/03/17 14:36:10;;;;;;;7.93;1.05;;;14.50;56.80;;;;;;5131681;27;20096;-80
2022/03/17 14:38:35;;;;;;;6.93;1.10;;;14.50;57.30;;;;;;5115397;27;20043;-81